Time;durP1;ratioP1;P1;durP2;ratioP2;P2;SDS_P1;SDS_P2;PMS_P1;PMS_P2;Temp;Humidity;BMP_temperature;BMP_pressure;BME280_temperature;BME280_humidity;BME280_pressure;Samples;Min_cycle;Max_cycle;Signal;HPM_P1;HPM_P2
2022/10/03 00:00:32;;;;;;;11.27;7.50;;;;;;;10.88;100.00;99791.56;5148882;27;20043;-76
2022/10/03 00:03:23;;;;;;;11.07;7.10;;;;;;;11.02;100.00;99821.81;5147683;27;20051;-76
2022/10/03 00:05:57;;;;;;;9.38;7.00;;;;;;;11.04;100.00;99817.91;5144020;27;20047;-76
2022/10/03 00:08:44;;;;;;;12.48;8.25;;;;;;;10.98;100.00;99838.47;5142633;27;20047;-76
2022/10/03 00:11:23;;;;;;;13.18;7.65;;;;;;;10.92;100.00;99819.28;5132413;27;20051;-76
2022/10/03 00:13:59;;;;;;;10.40;7.95;;;;;;;10.93;100.00;99813.69;5136025;27;20466;-76
2022/10/03 00:16:37;;;;;;;11.65;8.65;;;;;;;10.90;100.00;99830.34;5153344;27;20047;-76
2022/10/03 00:19:12;;;;;;;16.08;8.77;;;;;;;11.01;100.00;99828.31;5143381;27;20060;-77
2022/10/03 00:21:56;;;;;;;12.27;8.45;;;;;;;11.06;100.00;99855.81;5148929;27;20035;-76
2022/10/03 00:24:34;;;;;;;10.25;8.20;;;;;;;11.00;100.00;99838.31;5149151;27;20047;-76
2022/10/03 00:27:05;;;;;;;16.20;8.40;;;;;;;11.00;100.00;99840.19;5138820;27;20116;-76
2022/10/03 00:30:08;;;;;;;12.05;8.45;;;;;;;11.11;100.00;99853.44;5145948;27;20057;-76
2022/10/03 00:32:53;;;;;;;12.95;8.25;;;;;;;10.98;100.00;99829.47;5148941;27;20137;-76
2022/10/03 00:35:35;;;;;;;12.77;8.63;;;;;;;10.89;100.00;99839.50;5143305;27;20047;-76
2022/10/03 00:38:18;;;;;;;11.73;8.05;;;;;;;10.92;100.00;99863.66;5145748;27;20050;-76
2022/10/03 00:41:14;;;;;;;11.55;7.90;;;;;;;10.86;100.00;99839.00;5148352;27;20130;-76
2022/10/03 00:44:27;;;;;;;11.35;7.20;;;;;;;10.87;100.00;99843.41;5135493;27;20043;-76
2022/10/03 00:47:12;;;;;;;13.40;8.07;;;;;;;10.94;100.00;99852.59;5151135;27;20412;-76
2022/10/03 00:50:15;;;;;;;11.13;7.82;;;;;;;11.09;100.00;99869.09;5150578;27;20090;-77
2022/10/03 00:53:12;;;;;;;14.35;8.40;;;;;;;11.12;100.00;99874.19;5140917;27;20031;-76
2022/10/03 00:55:53;;;;;;;12.20;8.63;;;;;;;11.03;100.00;99857.00;5150459;27;20490;-77
2022/10/03 00:58:51;;;;;;;18.92;9.45;;;;;;;10.90;100.00;99846.66;5135647;27;20051;-76
2022/10/03 01:01:24;;;;;;;14.15;8.70;;;;;;;10.92;100.00;99854.66;5133361;27;20049;-76
2022/10/03 01:04:02;;;;;;;15.02;8.57;;;;;;;10.92;100.00;99841.06;5147543;27;20050;-77
2022/10/03 01:06:39;;;;;;;13.27;9.38;;;;;;;11.13;100.00;99874.00;5152145;27;20057;-76
2022/10/03 01:09:22;;;;;;;15.45;8.65;;;;;;;11.04;100.00;99866.03;5147725;27;20546;-76
2022/10/03 01:12:02;;;;;;;12.02;8.60;;;;;;;10.88;100.00;99853.28;5151275;27;20051;-77
2022/10/03 01:14:51;;;;;;;13.55;9.05;;;;;;;10.95;100.00;99874.19;5152670;27;20057;-77
2022/10/03 01:17:31;;;;;;;15.23;9.05;;;;;;;10.87;100.00;99851.56;5139888;27;20061;-77
2022/10/03 01:20:05;;;;;;;;;;;;;;;11.06;100.00;99866.72;5149662;27;20054;-76
2022/10/03 01:22:53;;;;;;;16.50;9.25;;;;;;;10.98;100.00;99862.97;5147636;27;19983;-76
2022/10/03 01:25:36;;;;;;;14.10;8.95;;;;;;;10.95;100.00;99878.78;5146498;27;20078;-77
2022/10/03 01:31:14;;;;;;;;;;;;;;;10.93;100.00;99870.81;5143826;27;20562;-76
2022/10/03 01:33:46;;;;;;;14.20;8.93;;;;;;;10.96;100.00;99862.31;5150968;27;19978;-77
2022/10/03 01:36:21;;;;;;;14.50;9.75;;;;;;;10.94;100.00;99871.66;5141954;27;20047;-76
2022/10/03 01:38:53;;;;;;;14.68;9.85;;;;;;;10.87;100.00;99840.69;5150487;27;20054;-76
2022/10/03 01:41:31;;;;;;;17.15;9.82;;;;;;;10.98;100.00;99868.41;5145092;27;20544;-76
2022/10/03 01:44:05;;;;;;;21.98;11.82;;;;;;;10.82;100.00;99841.19;5146646;27;20145;-76
2022/10/03 01:46:38;;;;;;;18.80;11.00;;;;;;;10.99;100.00;99882.88;5143038;27;20410;-77
2022/10/03 01:49:20;;;;;;;20.30;10.27;;;;;;;10.93;100.00;99878.97;5151769;27;20125;-77
2022/10/03 01:51:59;;;;;;;15.52;10.80;;;;;;;10.84;100.00;99870.94;5150819;27;20332;-77
2022/10/03 01:54:35;;;;;;;14.73;10.93;;;;;;;11.02;100.00;99889.84;5144356;27;20379;-76
2022/10/03 01:57:14;;;;;;;18.80;9.70;;;;;;;11.00;100.00;99870.13;5140424;27;20057;-76
2022/10/03 01:59:49;;;;;;;17.88;10.10;;;;;;;11.04;100.00;99894.09;5151284;27;20521;-76
2022/10/03 02:02:25;;;;;;;16.80;10.05;;;;;;;10.97;100.00;99877.63;5143347;27;20542;-76
2022/10/03 02:04:59;;;;;;;22.98;11.63;;;;;;;11.14;100.00;99896.63;5140063;27;20410;-77
2022/10/03 02:07:39;;;;;;;18.95;11.07;;;;;;;11.09;100.00;99888.97;5153169;27;20049;-76
2022/10/03 02:10:18;;;;;;;21.90;10.93;;;;;;;11.03;100.00;99880.66;5153170;27;20129;-76
2022/10/03 02:12:53;;;;;;;19.25;10.43;;;;;;;10.90;100.00;99886.59;5146884;27;20458;-76
2022/10/03 02:15:26;;;;;;;23.90;11.23;;;;;;;11.03;100.00;99907.88;5150305;27;20054;-76
2022/10/03 02:17:57;;;;;;;20.48;11.15;;;;;;;11.01;100.00;99901.75;5151222;27;20049;-76
2022/10/03 02:20:32;;;;;;;20.70;10.82;;;;;;;11.01;100.00;99904.47;5147718;27;20482;-76
2022/10/03 02:23:00;;;;;;;25.27;12.25;;;;;;;10.84;100.00;99882.72;5149096;27;20516;-76
2022/10/03 02:25:40;;;;;;;18.90;11.52;;;;;;;10.85;100.00;99881.66;5139022;27;20057;-76
2022/10/03 02:28:34;;;;;;;17.90;10.63;;;;;;;10.93;100.00;99908.00;5145289;27;20148;-77
2022/10/03 02:31:22;;;;;;;17.38;10.77;;;;;;;10.88;100.00;99897.66;5149880;27;20055;-76
2022/10/03 02:34:22;;;;;;;17.65;11.52;;;;;;;10.92;100.00;99879.97;5147741;27;20058;-76
2022/10/03 02:37:36;;;;;;;19.80;12.25;;;;;;;10.93;100.00;99888.97;5113359;27;20486;-76
2022/10/03 02:40:27;;;;;;;20.13;11.10;;;;;;;10.84;100.00;99884.56;5129482;27;20050;-77
2022/10/03 02:43:18;;;;;;;18.73;10.98;;;;;;;11.04;100.00;99910.41;5138514;27;20039;-76
2022/10/03 02:46:14;;;;;;;17.20;10.43;;;;;;;11.05;100.00;99917.56;5135065;27;20051;-76
2022/10/03 02:49:21;;;;;;;20.92;11.50;;;;;;;10.97;100.00;99912.09;5139294;27;20053;-76
2022/10/03 02:52:24;;;;;;;24.13;12.98;;;;;;;10.87;100.00;99893.25;5123617;27;20515;-77
2022/10/03 02:54:58;;;;;;;25.83;13.30;;;;;;;10.88;100.00;99899.53;5138458;27;20047;-77
2022/10/03 02:57:53;;;;;;;20.92;12.80;;;;;;;10.99;100.00;99926.41;5151054;27;20047;-76
2022/10/03 03:00:20;;;;;;;23.20;11.32;;;;;;;11.02;100.00;99917.91;5140516;27;20073;-76
2022/10/03 03:03:17;;;;;;;24.40;11.63;;;;;;;10.89;100.00;99895.78;5147798;27;20128;-76
2022/10/03 03:06:16;;;;;;;23.58;12.75;;;;;;;11.01;100.00;99912.63;5137596;27;20065;-76
2022/10/03 03:09:07;;;;;;;21.02;10.45;;;;;;;11.00;100.00;99910.94;5144878;27;20047;-77
2022/10/03 03:11:49;;;;;;;18.83;10.98;;;;;;;11.01;100.00;99916.19;5143298;27;20050;-77
2022/10/03 03:14:49;;;;;;;16.63;10.68;;;;;;;10.81;100.00;99891.19;5150471;27;20046;-76
2022/10/03 03:17:27;;;;;;;14.95;10.18;;;;;;;10.78;100.00;99897.81;5116964;27;20070;-76
2022/10/03 03:20:37;;;;;;;20.63;9.80;;;;;;;10.93;100.00;99916.19;5149580;27;20130;-76
2022/10/03 03:23:37;;;;;;;13.38;9.32;;;;;;;10.91;100.00;99905.47;5118903;27;20042;-76
2022/10/03 03:26:12;;;;;;;;;;;;;;;10.89;100.00;99912.97;5146288;27;20043;-76
2022/10/03 03:28:46;;;;;;;17.35;9.07;;;;;;;10.87;100.00;99904.13;5144497;27;19923;-76
2022/10/03 03:31:14;;;;;;;14.95;8.98;;;;;;;10.83;100.00;99889.16;5142998;27;20042;-76
2022/10/03 03:33:59;;;;;;;17.17;9.10;;;;;;;10.91;100.00;99912.78;5149480;27;20066;-76
2022/10/03 03:36:35;;;;;;;15.90;8.55;;;;;;;10.72;100.00;99887.63;5130521;27;20047;-76
2022/10/03 03:39:18;;;;;;;16.17;8.93;;;;;;;10.80;100.00;99903.94;5146806;27;20050;-76
2022/10/03 03:42:06;;;;;;;16.52;9.45;;;;;;;10.87;100.00;99892.38;5139587;27;20058;-76
2022/10/03 03:44:53;;;;;;;15.80;9.10;;;;;;;10.72;100.00;99894.91;5150443;27;20049;-76
2022/10/03 03:47:45;;;;;;;16.60;9.20;;;;;;;10.70;100.00;99905.97;5149254;27;20078;-76
2022/10/03 03:50:38;;;;;;;15.35;9.38;;;;;;;10.73;100.00;99899.34;5128080;27;20049;-76
2022/10/03 03:53:29;;;;;;;19.10;9.13;;;;;;;10.74;100.00;99901.06;5152034;27;20035;-76
2022/10/03 03:56:16;;;;;;;17.80;8.40;;;;;;;10.73;100.00;99900.19;5153260;27;20042;-76
2022/10/03 03:58:54;;;;;;;15.98;8.43;;;;;;;10.72;100.00;99903.94;5147131;27;20134;-77
2022/10/03 04:01:49;;;;;;;15.23;8.32;;;;;;;10.82;100.00;99920.09;5154512;27;20042;-76
2022/10/03 04:04:36;;;;;;;18.20;8.95;;;;;;;10.85;100.00;99940.66;5147645;27;20050;-76
2022/10/03 04:07:14;;;;;;;15.50;8.30;;;;;;;10.87;100.00;99936.78;5150571;27;20051;-76
2022/10/03 04:10:13;;;;;;;29.23;10.15;;;;;;;10.76;100.00;99913.47;5150469;27;20054;-76
2022/10/03 04:13:00;;;;;;;17.05;9.30;;;;;;;10.76;100.00;99913.47;5141549;27;20050;-76
2022/10/03 04:15:46;;;;;;;21.38;9.50;;;;;;;10.83;100.00;99935.41;5152130;27;20405;-76
2022/10/03 04:21:32;;;;;;;19.10;10.18;;;;;;;10.77;100.00;99912.44;5143488;27;20061;-76
2022/10/03 04:24:23;;;;;;;17.98;10.45;;;;;;;10.87;100.00;99933.19;5144633;27;20046;-76
2022/10/03 04:27:04;;;;;;;15.57;8.73;;;;;;;10.75;100.00;99932.69;5149233;27;20460;-76
2022/10/03 04:29:46;;;;;;;15.07;8.85;;;;;;;10.80;100.00;99942.00;5145777;27;20065;-77
2022/10/03 04:32:33;;;;;;;22.20;10.35;;;;;;;10.69;100.00;99914.28;5151591;27;20145;-76
2022/10/03 04:35:27;;;;;;;20.05;10.52;;;;;;;10.72;100.00;99924.81;5154328;27;20121;-76
2022/10/03 04:38:10;;;;;;;17.27;9.50;;;;;;;10.74;100.00;99925.53;5114673;27;20397;-76
2022/10/03 04:40:46;;;;;;;16.88;9.88;;;;;;;10.80;100.00;99941.16;5153317;27;20074;-76
2022/10/03 04:43:18;;;;;;;19.90;10.27;;;;;;;10.80;100.00;99938.44;5146441;27;20035;-76
2022/10/03 04:46:01;;;;;;;19.42;10.88;;;;;;;10.71;100.00;99920.44;5143318;27;20051;-76
2022/10/03 04:48:39;;;;;;;22.70;9.93;;;;;;;10.75;100.00;99941.69;5152205;27;20073;-76
2022/10/03 04:51:16;;;;;;;18.27;10.05;;;;;;;10.58;100.00;99920.88;5150213;27;20043;-77
2022/10/03 04:53:52;;;;;;;13.52;10.10;;;;;;;10.58;100.00;99916.31;5154004;27;20045;-76
2022/10/03 04:56:39;;;;;;;15.57;9.05;;;;;;;10.55;100.00;99932.09;5150119;27;20047;-76
2022/10/03 04:59:24;;;;;;;22.13;11.80;;;;;;;10.35;100.00;99913.34;5148471;27;20134;-75
2022/10/03 05:01:56;;;;;;;19.70;9.88;;;;;;;10.39;100.00;99922.88;5148670;27;20039;-76
2022/10/03 05:04:29;;;;;;;15.75;9.57;;;;;;;10.32;100.00;99919.09;5148600;27;20042;-76
2022/10/03 05:07:06;;;;;;;14.27;9.27;;;;;;;10.29;100.00;99916.72;5151343;27;20046;-76
2022/10/03 05:09:41;;;;;;;14.23;10.07;;;;;;;10.32;100.00;99927.25;5154057;27;20489;-76
2022/10/03 05:12:17;;;;;;;18.10;10.55;;;;;;;10.30;100.00;99925.69;5149671;27;20045;-76
2022/10/03 05:14:59;;;;;;;20.67;10.55;;;;;;;10.44;100.00;99955.84;5152364;27;20051;-76
2022/10/03 05:17:36;;;;;;;20.25;11.23;;;;;;;10.51;100.00;99958.78;5143043;27;20397;-76
2022/10/03 05:20:38;;;;;;;23.02;13.00;;;;;;;10.30;100.00;99936.56;5153283;27;20066;-76
2022/10/03 05:23:19;;;;;;;24.00;11.90;;;;;;;10.29;100.00;99941.16;5109076;27;20045;-76
2022/10/03 05:25:54;;;;;;;26.42;12.98;;;;;;;10.44;100.00;99961.28;5150064;27;20409;-76
2022/10/03 05:28:35;;;;;;;23.38;13.18;;;;;;;10.29;100.00;99935.72;5152322;27;20039;-76
2022/10/03 05:31:12;;;;;;;26.08;14.60;;;;;;;10.36;100.00;99953.13;5152675;27;20134;-75
2022/10/03 05:33:51;;;;;;;24.45;14.00;;;;;;;10.39;100.00;99943.78;5152138;27;20165;-77
2022/10/03 05:36:32;;;;;;;28.02;15.45;;;;;;;10.37;100.00;99953.97;5144495;27;20073;-76
2022/10/03 05:39:26;;;;;;;32.80;15.00;;;;;;;10.42;100.00;99984.25;5151860;27;20513;-76
2022/10/03 05:42:00;;;;;;;27.23;14.88;;;;;;;10.33;100.00;99958.88;5149261;27;20038;-76
2022/10/03 05:44:41;;;;;;;26.25;14.30;;;;;;;10.28;100.00;99967.50;5151644;27;20078;-76
2022/10/03 05:50:09;;;;;;;23.23;14.30;;;;;;;10.24;100.00;99974.28;5143417;27;20410;-77
2022/10/03 05:53:09;;;;;;;25.70;13.57;;;;;;;10.22;100.00;99978.16;5144485;27;20406;-76
2022/10/03 05:55:46;;;;;;;36.42;15.65;;;;;;;10.30;100.00;100005.38;5149617;27;20409;-76
2022/10/03 05:58:33;;;;;;;26.55;14.75;;;;;;;10.25;100.00;99984.13;5144930;27;20042;-76
2022/10/03 06:01:23;;;;;;;25.13;14.23;;;;;;;10.34;100.00;100014.09;5148689;27;20053;-76
2022/10/03 06:04:00;;;;;;;;;;;;;;;10.29;100.00;100017.25;5143343;27;20047;-76
2022/10/03 06:06:42;;;;;;;27.63;14.38;;;;;;;10.39;100.00;100025.34;5151803;27;19919;-76
2022/10/03 06:09:44;;;;;;;28.55;14.23;;;;;;;10.22;100.00;99995.34;5140766;27;20050;-76
2022/10/03 06:12:14;;;;;;;23.63;13.32;;;;;;;10.18;100.00;99999.38;5144158;27;20046;-76
2022/10/03 06:15:20;;;;;;;28.52;15.93;;;;;;;10.25;100.00;100019.47;5145433;27;20485;-76
2022/10/03 06:17:57;;;;;;;39.47;15.25;;;;;;;10.09;100.00;100000.34;5149083;27;20058;-76
2022/10/03 06:21:01;;;;;;;32.33;14.73;;;;;;;10.00;100.00;100006.75;5153053;27;20053;-76
2022/10/03 06:23:47;;;;;;;32.65;16.90;;;;;;;10.25;100.00;100019.47;5129910;27;20134;-76
2022/10/03 06:26:40;;;;;;;35.03;16.25;;;;;;;10.05;100.00;100004.41;5154394;27;20459;-76
2022/10/03 06:29:59;;;;;;;30.13;16.73;;;;;;;10.28;100.00;100030.00;5127342;27;20110;-77
2022/10/03 06:33:03;;;;;;;34.30;17.33;;;;;;;10.26;100.00;100037.44;5125188;27;20038;-76
2022/10/03 06:36:13;;;;;;;33.78;16.88;;;;;;;10.18;100.00;100012.13;5145113;27;20042;-76
2022/10/03 06:39:27;;;;;;;31.35;16.10;;;;;;;10.36;100.00;100039.25;5145486;27;20292;-76
2022/10/03 06:42:20;;;;;;;34.47;15.75;;;;;;;10.31;100.00;100022.53;5141297;27;20046;-76
2022/10/03 06:45:14;;;;;;;30.98;16.83;;;;;;;10.28;100.00;100019.13;5145865;27;20053;-76
2022/10/03 06:48:00;;;;;;;33.22;17.17;;;;;;;10.40;100.00;100046.91;5145144;27;20046;-76
2022/10/03 06:50:58;;;;;;;34.15;15.68;;;;;;;10.24;100.00;100023.19;5138237;27;20054;-76
2022/10/03 06:53:50;;;;;;;33.03;16.17;;;;;;;10.49;100.00;100036.91;5143869;27;20078;-76
2022/10/03 06:57:03;;;;;;;31.38;17.15;;;;;;;10.42;100.00;100033.16;5139646;27;20057;-77
2022/10/03 07:00:01;;;;;;;37.38;16.42;;;;;;;10.41;100.00;100029.56;5131956;27;20051;-77
2022/10/03 07:03:15;;;;;;;34.92;16.25;;;;;;;10.74;100.00;100056.91;5135455;27;20121;-76
2022/10/03 07:06:23;;;;;;;31.88;16.10;;;;;;;10.68;100.00;100043.97;5130337;27;20047;-76
2022/10/03 07:09:25;;;;;;;28.05;14.20;;;;;;;10.97;100.00;100072.63;5129584;27;20134;-77
2022/10/03 07:12:30;;;;;;;32.35;14.70;;;;;;;11.05;100.00;100069.94;5149019;27;20050;-76
2022/10/03 07:15:18;;;;;;;34.60;15.18;;;;;;;10.83;100.00;100040.63;5131438;27;20047;-76
2022/10/03 07:18:10;;;;;;;29.38;13.77;;;;;;;11.05;100.00;100059.06;5144558;27;20057;-76
2022/10/03 07:21:13;;;;;;;27.70;13.55;;;;;;;11.07;100.00;100073.34;5145837;27;20053;-77
2022/10/03 07:24:01;;;;;;;22.88;13.45;;;;;;;11.12;100.00;100072.84;5148133;27;20051;-76
2022/10/03 07:26:59;;;;;;;20.80;12.85;;;;;;;11.02;100.00;100055.81;5147623;27;20390;-77
2022/10/03 07:29:55;;;;;;;20.23;11.13;;;;;;;11.04;100.00;100051.91;5142807;27;20082;-77
2022/10/03 07:32:40;;;;;;;23.50;11.75;;;;;;;11.05;100.00;100069.94;5139225;27;20039;-76
2022/10/03 07:39:00;;;;;;;20.77;10.43;;;;;;;11.15;100.00;100078.81;5144238;27;20054;-77
2022/10/03 07:41:48;;;;;;;22.13;10.90;;;;;;;11.07;100.00;100067.91;5144309;27;20039;-77
2022/10/03 07:44:41;;;;;;;25.33;10.15;;;;;;;11.05;100.00;100080.84;5136054;27;20122;-77
2022/10/03 07:47:56;;;;;;;27.40;10.55;;;;;;;11.09;100.00;100065.00;5150235;27;20057;-77
2022/10/03 07:50:56;;;;;;;22.08;9.27;;;;;;;11.19;100.00;100071.16;5144890;27;20110;-77
2022/10/03 07:53:59;;;;;;;22.10;9.80;;;;;;;11.43;100.00;100097.56;5143284;27;20047;-76
2022/10/03 07:56:49;;;;;;;14.27;6.57;;;;;;;11.33;100.00;100096.88;5147045;27;20428;-76
2022/10/03 07:59:51;;;;;;;147.60;82.90;;;;;;;11.30;100.00;100080.88;5141218;27;20405;-77
2022/10/03 08:02:55;;;;;;;38.78;19.00;;;;;;;11.44;100.00;100079.34;5141230;27;20142;-76
2022/10/03 08:05:28;;;;;;;23.77;11.07;;;;;;;11.61;100.00;100088.41;5137406;27;20076;-76
2022/10/03 08:08:33;;;;;;;22.67;7.65;;;;;;;11.69;100.00;100088.41;5138570;27;20100;-76
2022/10/03 08:11:43;;;;;;;43.42;17.90;;;;;;;11.81;100.00;100097.94;5156170;27;20050;-77
2022/10/03 08:14:19;;;;;;;51.35;26.30;;;;;;;11.86;100.00;100097.44;5074048;28;20070;-76
2022/10/03 08:17:22;;;;;;;33.95;15.30;;;;;;;11.95;100.00;100099.16;5143653;27;20390;-77
2022/10/03 08:20:13;;;;;;;13.73;5.45;;;;;;;11.81;100.00;100088.94;5152755;27;20046;-77
2022/10/03 08:22:52;;;;;;;21.65;8.80;;;;;;;11.82;100.00;100096.09;5139915;27;20055;-76
2022/10/03 08:25:47;;;;;;;18.80;5.93;;;;;;;11.69;100.00;100097.44;5146393;27;20060;-76
2022/10/03 08:28:47;;;;;;;14.77;5.75;;;;;;;11.85;100.00;100090.31;5143952;27;20059;-76
2022/10/03 08:31:43;;;;;;;22.10;9.93;;;;;;;11.99;100.00;100118.75;5105638;27;20474;-77
2022/10/03 08:34:39;;;;;;;22.65;10.93;;;;;;;11.97;100.00;100094.41;5142348;27;20047;-76
2022/10/03 08:37:40;;;;;;;149.50;77.90;;;;;;;12.20;100.00;100115.50;5134666;27;20058;-76
2022/10/03 08:40:52;;;;;;;21.30;10.23;;;;;;;12.26;100.00;100106.63;5137450;27;20659;-76
2022/10/03 08:44:03;;;;;;;18.33;6.50;;;;;;;12.45;100.00;100113.59;5141584;27;20045;-77
2022/10/03 08:47:02;;;;;;;11.45;5.18;;;;;;;12.37;100.00;100079.03;5147326;27;20039;-76
2022/10/03 08:50:26;;;;;;;10.43;5.25;;;;;;;12.55;100.00;100111.50;5144462;27;20524;-76
2022/10/03 08:53:16;;;;;;;25.23;15.85;;;;;;;12.56;100.00;100110.50;5125438;27;20051;-77
2022/10/03 08:55:51;;;;;;;20.30;10.05;;;;;;;12.67;100.00;100122.06;5142112;27;20054;-77
2022/10/03 08:58:35;;;;;;;14.15;8.43;;;;;;;12.43;100.00;100090.25;5149598;27;20043;-77
2022/10/03 09:01:22;;;;;;;15.00;8.52;;;;;;;12.60;100.00;100112.88;5151023;27;20472;-77
2022/10/03 09:04:28;;;;;;;12.45;8.02;;;;;;;12.44;100.00;100100.97;5143848;27;20245;-75
2022/10/03 09:07:41;;;;;;;16.00;6.50;;;;;;;12.60;100.00;100113.75;5135829;27;20053;-77
2022/10/03 09:10:42;;;;;;;9.52;5.25;;;;;;;12.59;100.00;100103.84;5111936;27;20050;-76
2022/10/03 09:13:41;;;;;;;13.25;7.32;;;;;;;12.60;100.00;100096.50;5142544;27;20046;-76
2022/10/03 09:16:40;;;;;;;13.20;5.13;;;;;;;12.69;100.00;100085.41;5143468;27;20055;-76
2022/10/03 09:19:30;;;;;;;13.55;3.97;;;;;;;12.77;95.76;100075.44;5137089;27;20409;-76
2022/10/03 09:22:41;;;;;;;14.82;3.42;;;;;;;12.87;92.10;100107.00;5143022;27;20400;-76
2022/10/03 09:25:22;;;;;;;16.35;3.75;;;;;;;12.85;93.26;100105.44;5149256;27;20077;-76
2022/10/03 09:28:32;;;;;;;7.78;3.83;;;;;;;12.67;93.92;100094.78;5146959;27;20082;-76
2022/10/03 09:31:12;;;;;;;11.25;4.22;;;;;;;12.71;99.58;100085.22;5147121;27;20502;-76
2022/10/03 09:34:03;;;;;;;11.43;3.80;;;;;;;12.92;98.88;100107.28;5145715;27;20035;-76
2022/10/03 09:37:14;;;;;;;15.00;4.93;;;;;;;12.67;98.81;100078.41;5142431;27;20050;-76
2022/10/03 09:40:23;;;;;;;16.73;4.47;;;;;;;12.83;94.48;100085.69;5147056;27;20479;-76
2022/10/03 09:43:17;;;;;;;15.25;5.25;;;;;;;12.78;96.87;100079.91;5102824;27;20506;-76
2022/10/03 09:46:08;;;;;;;9.82;4.50;;;;;;;12.82;95.12;100095.72;5095003;27;20059;-76
2022/10/03 09:48:57;;;;;;;15.80;4.68;;;;;;;12.95;91.00;100102.50;5151244;27;20083;-76
2022/10/03 09:51:35;;;;;;;14.23;4.38;;;;;;;12.84;92.61;100084.63;5147320;27;20506;-76
2022/10/03 09:54:26;;;;;;;12.80;4.60;;;;;;;12.98;94.39;100089.38;5148591;27;20054;-76
2022/10/03 09:57:19;;;;;;;11.70;4.50;;;;;;;12.91;88.24;100081.03;5148843;27;20146;-76
2022/10/03 10:00:16;;;;;;;9.05;3.55;;;;;;;12.97;90.87;100082.19;5150535;27;20050;-76
2022/10/03 10:03:21;;;;;;;11.18;3.92;;;;;;;13.16;89.33;100110.06;5150122;27;20049;-76
2022/10/03 10:06:25;;;;;;;9.73;4.10;;;;;;;13.14;86.20;100082.94;5138798;27;20558;-76
2022/10/03 10:09:41;;;;;;;9.00;4.07;;;;;;;13.01;88.35;100089.00;5150458;27;20386;-76
2022/10/03 10:12:33;;;;;;;14.82;5.45;;;;;;;13.05;93.19;100105.88;5145041;27;20042;-76
2022/10/03 10:15:20;;;;;;;15.48;5.10;;;;;;;12.99;91.21;100109.31;5150717;27;20078;-76
2022/10/03 10:18:19;;;;;;;10.15;5.22;;;;;;;13.15;94.21;100103.78;5150894;27;20047;-76
2022/10/03 10:21:27;;;;;;;23.27;6.00;;;;;;;13.15;96.59;100101.03;5138568;27;20047;-76
2022/10/03 10:24:09;;;;;;;10.70;4.68;;;;;;;13.14;96.15;100093.03;5130759;27;20047;-76
2022/10/03 10:27:07;;;;;;;9.32;4.55;;;;;;;13.46;97.17;100094.75;5148264;27;20054;-76
2022/10/03 10:30:04;;;;;;;14.05;5.43;;;;;;;13.68;93.33;100097.66;5135456;27;20043;-77
2022/10/03 10:33:06;;;;;;;11.65;4.63;;;;;;;13.75;92.95;100095.91;5120475;27;20135;-76
2022/10/03 10:36:05;;;;;;;12.27;4.70;;;;;;;13.79;94.29;100106.28;5135405;27;20047;-76
2022/10/03 10:39:27;;;;;;;13.35;5.40;;;;;;;13.63;91.02;100098.22;5143113;27;20050;-76
2022/10/03 10:42:32;;;;;;;11.50;4.72;;;;;;;13.75;96.52;100123.25;5148645;27;20050;-76
2022/10/03 10:45:38;;;;;;;14.57;4.65;;;;;;;13.25;93.28;100120.78;5143848;27;20047;-76
2022/10/03 10:48:53;;;;;;;12.65;4.18;;;;;;;13.08;93.41;100100.06;5133387;27;20064;-76
2022/10/03 10:51:45;;;;;;;13.48;3.97;;;;;;;13.13;90.83;100099.50;5059204;28;20481;-77
2022/10/03 10:55:08;;;;;;;13.20;5.35;;;;;;;13.00;96.62;100092.75;5134093;27;20040;-76
2022/10/03 10:58:30;;;;;;;10.65;3.53;;;;;;;13.24;93.31;100115.50;5113916;27;20058;-76
2022/10/03 11:01:46;;;;;;;14.20;4.00;;;;;;;13.44;97.07;100110.47;5134566;27;20039;-77
2022/10/03 11:05:00;;;;;;;10.32;3.20;;;;;;;13.32;91.93;100087.28;5137196;27;20491;-77
2022/10/03 11:08:02;;;;;;;8.93;3.55;;;;;;;13.48;94.45;100097.31;5149411;27;20053;-76
2022/10/03 11:10:35;;;;;;;9.43;4.55;;;;;;;13.31;95.61;100077.41;5145017;27;20586;-77
2022/10/03 11:13:49;;;;;;;16.15;5.35;;;;;;;13.21;96.79;100099.47;5147707;27;20047;-77
2022/10/03 11:17:08;;;;;;;16.40;5.10;;;;;;;13.12;95.68;100081.44;5141085;27;20050;-77
2022/10/03 11:20:02;;;;;;;8.95;3.90;;;;;;;13.26;95.97;100099.78;5136797;27;20050;-76
2022/10/03 11:23:07;;;;;;;10.30;3.90;;;;;;;13.22;95.60;100073.88;5132701;27;20043;-76
2022/10/03 11:26:06;;;;;;;9.13;3.95;;;;;;;13.35;93.18;100056.94;5145163;27;20446;-77
2022/10/03 11:29:06;;;;;;;11.60;3.70;;;;;;;13.75;87.72;100085.81;5082991;27;20054;-76
2022/10/03 11:32:13;;;;;;;12.95;3.63;;;;;;;13.97;86.06;100088.72;5148519;27;20046;-77
2022/10/03 11:35:19;;;;;;;12.30;3.35;;;;;;;14.02;88.23;100094.50;5142149;27;20061;-77
2022/10/03 11:37:50;;;;;;;8.27;2.55;;;;;;;13.98;83.73;100074.00;5143036;27;20061;-76
2022/10/03 11:40:30;;;;;;;9.63;2.88;;;;;;;14.21;87.12;100060.31;5149833;27;20058;-76
2022/10/03 11:43:07;;;;;;;8.68;2.75;;;;;;;14.42;79.69;100088.78;5144244;27;20070;-77
2022/10/03 11:45:41;;;;;;;7.35;2.72;;;;;;;14.63;77.19;100069.78;5148067;27;20134;-76
2022/10/03 11:48:31;;;;;;;9.50;2.63;;;;;;;14.90;74.83;100072.84;5143215;27;20050;-76
2022/10/03 11:51:03;;;;;;;9.82;3.45;;;;;;;14.96;75.53;100060.31;5146036;27;20050;-76
2022/10/03 11:53:42;;;;;;;6.93;2.60;;;;;;;15.19;76.37;100088.41;5143918;27;20045;-76
2022/10/03 11:56:28;;;;;;;10.70;2.75;;;;;;;15.21;74.72;100072.59;5135786;27;20346;-76
2022/10/03 11:59:08;;;;;;;12.05;2.83;;;;;;;15.14;69.32;100060.72;5132141;27;20054;-77
2022/10/03 12:01:55;;;;;;;11.43;2.38;;;;;;;15.23;70.12;100058.72;5148775;27;20051;-76
2022/10/03 12:04:31;;;;;;;17.73;3.40;;;;;;;15.35;71.91;100068.13;5143921;27;20042;-76
2022/10/03 12:10:01;;;;;;;6.88;3.15;;;;;;;15.97;70.77;100053.97;5136660;27;20180;-77
2022/10/03 12:12:36;;;;;;;6.72;2.28;;;;;;;16.14;66.65;100041.69;5139400;27;20162;-76
2022/10/03 12:15:17;;;;;;;5.03;2.53;;;;;;;16.08;65.54;100076.22;5151061;27;20088;-77
2022/10/03 12:17:54;;;;;;;8.32;2.15;;;;;;;16.08;66.49;100043.31;5135028;27;20125;-77
2022/10/03 12:20:26;;;;;;;5.15;2.15;;;;;;;16.21;60.81;100063.66;5145358;27;20103;-77
2022/10/03 12:23:00;;;;;;;8.23;1.90;;;;;;;16.21;60.94;100059.03;5148992;27;20051;-77
2022/10/03 12:25:29;;;;;;;7.03;1.95;;;;;;;15.62;63.13;100030.03;5143320;27;20766;-77
2022/10/03 12:28:10;;;;;;;9.02;2.40;;;;;;;15.49;64.42;100040.84;5143990;27;20055;-77
2022/10/03 12:30:44;;;;;;;5.55;2.15;;;;;;;15.43;65.63;100049.88;5150736;27;20085;-77
2022/10/03 12:33:28;;;;;;;5.70;2.38;;;;;;;15.20;68.50;100035.31;5152083;27;20494;-75
2022/10/03 12:36:02;;;;;;;8.27;2.30;;;;;;;15.09;70.84;100040.47;5147602;27;20653;-76
2022/10/03 12:38:45;;;;;;;6.22;2.38;;;;;;;15.02;69.83;100033.00;5149443;27;20054;-75
2022/10/03 12:41:21;;;;;;;4.57;2.10;;;;;;;15.02;70.48;100043.09;5133936;27;20129;-76
2022/10/03 12:44:04;;;;;;;5.38;2.30;;;;;;;15.07;70.54;100050.72;5142135;27;20050;-76
2022/10/03 12:46:39;;;;;;;7.10;2.30;;;;;;;15.07;68.56;100045.25;5150570;27;20035;-76
2022/10/03 12:49:15;;;;;;;5.93;2.22;;;;;;;14.72;69.31;100023.16;5154996;27;20039;-78
2022/10/03 12:51:53;;;;;;;6.43;2.00;;;;;;;14.75;69.75;100028.25;5147954;27;20047;-78
2022/10/03 12:54:39;;;;;;;10.82;2.20;;;;;;;14.73;68.61;100033.91;5153327;27;20043;-76
2022/10/03 12:57:54;;;;;;;5.15;1.98;;;;;;;14.91;70.13;100030.75;5137054;27;20057;-76
2022/10/03 13:00:25;;;;;;;8.60;2.10;;;;;;;14.85;69.63;100031.53;5147156;27;20127;-76
2022/10/03 13:03:16;;;;;;;8.98;2.38;;;;;;;14.90;70.69;100040.00;5150862;27;20054;-77
2022/10/03 13:06:08;;;;;;;5.22;1.73;;;;;;;14.93;68.34;100019.63;5135360;27;20130;-77
2022/10/03 13:08:43;;;;;;;9.68;2.35;;;;;;;14.86;67.88;100033.25;5152811;27;20050;-76